createdAt,value
2019-05-11T00:00:42.023Z,95106
2019-05-11T00:01:51.640Z,95109
2019-05-11T00:03:01.238Z,95109
2019-05-11T00:04:10.873Z,95109
2019-05-11T00:05:20.500Z,95113
2019-05-11T00:06:30.130Z,95115
2019-05-11T00:07:39.723Z,95113
2019-05-11T00:08:49.320Z,95115
2019-05-11T00:09:58.955Z,95113
2019-05-11T00:11:08.556Z,95117
2019-05-11T00:12:18.156Z,95118
2019-05-11T00:13:27.742Z,95113
2019-05-11T00:14:37.370Z,95110
2019-05-11T00:15:46.979Z,95110
2019-05-11T00:16:56.579Z,95104
2019-05-11T00:18:06.187Z,95103
2019-05-11T00:19:15.827Z,95112
2019-05-11T00:20:25.420Z,95108
2019-05-11T00:21:35.013Z,95107
2019-05-11T00:22:44.604Z,95104
2019-05-11T00:23:54.219Z,95100
2019-05-11T00:25:03.897Z,95099
2019-05-11T00:26:13.540Z,95096
2019-05-11T00:27:23.154Z,95097
2019-05-11T00:28:32.760Z,95099
2019-05-11T00:29:42.364Z,95092
2019-05-11T00:30:52.002Z,95092
2019-05-11T00:32:01.609Z,95089
2019-05-11T00:33:11.209Z,95082
2019-05-11T00:34:20.823Z,95084
2019-05-11T00:35:31.435Z,95076
2019-05-11T00:36:41.045Z,95073
2019-05-11T00:37:50.646Z,95068
2019-05-11T00:39:00.253Z,95067
2019-05-11T00:40:14.210Z,95068
2019-05-11T00:41:19.422Z,95073
2019-05-11T00:42:29.035Z,95075
2019-05-11T00:43:38.641Z,95076
2019-05-11T00:44:48.248Z,95077
2019-05-11T00:45:57.867Z,95078
2019-05-11T00:47:08.459Z,95081
2019-05-11T00:48:18.041Z,95078
2019-05-11T00:49:27.665Z,95076
2019-05-11T00:50:39.584Z,95076
2019-05-11T00:51:46.853Z,95066
2019-05-11T00:52:56.463Z,95060
2019-05-11T00:54:06.075Z,95056
2019-05-11T00:55:15.669Z,95056
2019-05-11T00:56:25.292Z,95059
2019-05-11T00:57:34.871Z,95059
2019-05-11T00:58:44.457Z,95062
2019-05-11T00:59:54.067Z,95063
2019-05-11T01:01:03.695Z,95059
2019-05-11T01:02:13.285Z,95060
2019-05-11T01:03:22.880Z,95059
2019-05-11T01:04:32.485Z,95054
2019-05-11T01:05:42.090Z,95055
2019-05-11T01:06:51.676Z,95059
2019-05-11T01:08:01.270Z,95062
2019-05-11T01:09:10.880Z,95065
2019-05-11T01:10:25.371Z,95059
2019-05-11T01:11:31.127Z,95056
2019-05-11T01:12:40.674Z,95060
2019-05-11T01:13:50.297Z,95056
2019-05-11T01:14:59.895Z,95052
2019-05-11T01:16:09.502Z,95044
2019-05-11T01:17:19.078Z,95051
2019-05-11T01:18:28.696Z,95042
2019-05-11T01:19:38.302Z,95046
2019-05-11T01:20:47.923Z,95045
2019-05-11T01:21:57.548Z,95036
2019-05-11T01:23:07.139Z,95037
2019-05-11T01:24:16.739Z,95035
2019-05-11T01:25:26.353Z,95027
2019-05-11T01:26:35.963Z,95022
2019-05-11T01:27:45.552Z,95015
2019-05-11T01:28:55.146Z,95016
2019-05-11T01:30:04.743Z,95007
2019-05-11T01:31:14.338Z,95002
2019-05-11T01:32:23.961Z,95003
2019-05-11T01:33:33.573Z,95004
2019-05-11T01:34:43.180Z,95005
2019-05-11T01:35:52.773Z,95005
2019-05-11T01:37:02.370Z,95001
2019-05-11T01:38:11.987Z,95007
2019-05-11T01:39:21.598Z,95002
2019-05-11T01:40:31.165Z,95000
2019-05-11T01:41:40.776Z,94995
2019-05-11T01:42:50.363Z,94998
2019-05-11T01:43:59.977Z,95001
2019-05-11T01:45:09.563Z,95006
2019-05-11T01:46:19.163Z,94995
2019-05-11T01:47:28.759Z,94991
2019-05-11T01:48:38.383Z,94991
2019-05-11T01:49:47.970Z,94998
2019-05-11T01:50:57.629Z,95004
2019-05-11T01:52:07.219Z,95007
2019-05-11T01:53:16.823Z,95001
2019-05-11T01:54:26.348Z,94994
2019-05-11T01:55:35.881Z,94983
2019-05-11T01:56:45.434Z,94981
2019-05-11T01:57:55.026Z,94970
2019-05-11T01:59:04.575Z,94967
2019-05-11T02:00:14.165Z,94962
2019-05-11T02:01:23.690Z,94960
2019-05-11T02:02:33.286Z,94963
2019-05-11T02:03:42.797Z,94960
2019-05-11T02:04:52.320Z,94964
2019-05-11T02:06:01.854Z,94962
2019-05-11T02:07:11.446Z,94966
2019-05-11T02:08:20.959Z,94965
2019-05-11T02:09:30.495Z,94968
2019-05-11T02:10:40.023Z,94964
2019-05-11T02:11:49.559Z,94962
2019-05-11T02:12:59.930Z,94965
2019-05-11T02:14:09.427Z,94963
2019-05-11T02:15:18.964Z,94965
2019-05-11T02:16:28.496Z,94969
2019-05-11T02:17:38.052Z,94971
2019-05-11T02:18:47.570Z,94971
2019-05-11T02:19:57.106Z,94974
2019-05-11T02:21:06.623Z,94976
2019-05-11T02:22:16.140Z,94973
2019-05-11T02:23:25.675Z,94973
2019-05-11T02:24:35.213Z,94967
2019-05-11T02:25:44.722Z,94968
2019-05-11T02:26:54.280Z,94963
2019-05-11T02:28:03.862Z,94967
2019-05-11T02:29:13.351Z,94963
2019-05-11T02:30:22.876Z,94964
2019-05-11T02:31:32.460Z,94966
2019-05-11T02:32:41.956Z,94959
2019-05-11T02:33:51.502Z,94957
2019-05-11T02:35:01.020Z,94963
2019-05-11T02:36:10.537Z,94963
2019-05-11T02:37:20.059Z,94961
2019-05-11T02:38:29.582Z,94964
2019-05-11T02:39:39.097Z,94960
2019-05-11T02:40:48.619Z,94962
2019-05-11T02:41:58.185Z,94958
2019-05-11T02:43:07.691Z,94961
2019-05-11T02:44:17.219Z,94957
2019-05-11T02:45:26.742Z,94954
2019-05-11T02:46:36.265Z,94952
2019-05-11T02:47:45.810Z,94952
2019-05-11T02:48:55.315Z,94951
2019-05-11T02:50:04.850Z,94952
2019-05-11T02:51:14.433Z,94956
2019-05-11T02:52:23.900Z,94952
2019-05-11T02:53:33.456Z,94954
2019-05-11T02:54:42.981Z,94951
2019-05-11T02:55:52.539Z,94946
2019-05-11T02:57:09.094Z,94948
2019-05-11T02:58:18.735Z,94949
2019-05-11T02:59:29.900Z,94944
2019-05-11T03:00:37.845Z,94951
2019-05-11T03:01:47.381Z,94942
2019-05-11T03:02:56.948Z,94936
2019-05-11T03:04:06.484Z,94937
2019-05-11T03:05:16.042Z,94934
2019-05-11T03:06:25.618Z,94931
2019-05-11T03:07:35.165Z,94933
2019-05-11T03:08:44.740Z,94933
2019-05-11T03:09:54.273Z,94930
2019-05-11T03:11:04.571Z,94932
2019-05-11T03:12:14.120Z,94928
2019-05-11T03:13:23.698Z,94927
2019-05-11T03:14:33.241Z,94922
2019-05-11T03:15:42.785Z,94922
2019-05-11T03:16:52.338Z,94914
2019-05-11T03:18:01.918Z,94910
2019-05-11T03:19:11.425Z,94911
2019-05-11T03:20:20.999Z,94907
2019-05-11T03:21:30.551Z,94905
2019-05-11T03:22:40.142Z,94910
2019-05-11T03:23:49.690Z,94907
2019-05-11T03:24:59.256Z,94906
2019-05-11T03:26:08.785Z,94910
2019-05-11T03:27:18.404Z,94908
2019-05-11T03:28:27.950Z,94909
2019-05-11T03:29:37.499Z,94913
2019-05-11T03:30:47.084Z,94908
2019-05-11T03:31:56.616Z,94907
2019-05-11T03:33:06.198Z,94904
2019-05-11T03:34:15.781Z,94899
2019-05-11T03:35:25.369Z,94899
2019-05-11T03:36:34.862Z,94903
2019-05-11T03:37:44.421Z,94900
2019-05-11T03:38:53.979Z,94894
2019-05-11T03:40:03.532Z,94895
2019-05-11T03:41:13.084Z,94894
2019-05-11T03:42:22.618Z,94891
2019-05-11T03:43:32.215Z,94884
2019-05-11T03:44:41.748Z,94878
2019-05-11T03:45:51.287Z,94879
2019-05-11T03:47:00.815Z,94880
2019-05-11T03:48:10.362Z,94879
2019-05-11T03:49:19.977Z,94875
2019-05-11T03:50:29.528Z,94878
2019-05-11T03:51:39.101Z,94875
2019-05-11T03:52:48.612Z,94873
2019-05-11T03:53:58.196Z,94871
2019-05-11T03:55:07.737Z,94867
2019-05-11T03:56:17.308Z,94867
2019-05-11T03:57:26.851Z,94864
2019-05-11T03:58:36.422Z,94862
2019-05-11T03:59:45.981Z,94857
2019-05-11T04:00:55.529Z,94862
2019-05-11T04:02:05.058Z,94863
2019-05-11T04:03:14.627Z,94857
2019-05-11T04:04:24.179Z,94860
2019-05-11T04:05:33.751Z,94860
2019-05-11T04:06:43.291Z,94860
2019-05-11T04:07:52.884Z,94863
2019-05-11T04:09:02.460Z,94858
2019-05-11T04:10:11.996Z,94859
2019-05-11T04:11:21.543Z,94859
2019-05-11T04:12:35.059Z,94857
2019-05-11T04:13:40.638Z,94856
2019-05-11T04:14:50.228Z,94857
2019-05-11T04:15:59.804Z,94856
2019-05-11T04:17:09.397Z,94857
2019-05-11T04:18:18.935Z,94858
2019-05-11T04:19:28.525Z,94862
2019-05-11T04:20:38.062Z,94859
2019-05-11T04:21:47.602Z,94859
2019-05-11T04:22:57.142Z,94857
2019-05-11T04:24:06.692Z,94858
2019-05-11T04:25:16.243Z,94857
2019-05-11T04:26:25.797Z,94861
2019-05-11T04:27:35.368Z,94863
2019-05-11T04:28:44.924Z,94867
2019-05-11T04:29:54.513Z,94863
2019-05-11T04:31:04.033Z,94865
2019-05-11T04:32:13.580Z,94867
2019-05-11T04:33:23.128Z,94865
2019-05-11T04:34:33.710Z,94872
2019-05-11T04:35:43.277Z,94870
2019-05-11T04:36:52.836Z,94869
2019-05-11T04:38:02.427Z,94875
2019-05-11T04:39:12.028Z,94873
2019-05-11T04:40:21.604Z,94874
2019-05-11T04:41:31.150Z,94872
2019-05-11T04:42:53.816Z,94878
2019-05-11T04:43:52.191Z,94884
2019-05-11T04:45:01.799Z,94892
2019-05-11T04:46:11.297Z,94896
2019-05-11T04:47:20.855Z,94899
2019-05-11T04:48:30.423Z,94905
2019-05-11T04:49:40.016Z,94897
2019-05-11T04:50:49.588Z,94896
2019-05-11T04:51:59.112Z,94893
2019-05-11T04:53:08.679Z,94902
2019-05-11T04:54:18.215Z,94905
2019-05-11T04:55:27.804Z,94911
2019-05-11T04:56:37.397Z,94918
2019-05-11T04:57:46.984Z,94916
2019-05-11T04:58:56.498Z,94902
2019-05-11T05:00:06.056Z,94910
2019-05-11T05:01:15.609Z,94913
2019-05-11T05:02:27.233Z,94917
2019-05-11T05:03:40.603Z,94909
2019-05-11T05:04:45.235Z,94913
2019-05-11T05:05:55.801Z,94908
2019-05-11T05:07:10.560Z,94909
2019-05-11T05:08:15.897Z,94906
2019-05-11T05:09:26.509Z,94908
2019-05-11T05:10:36.987Z,94907
2019-05-11T05:11:46.531Z,94905
2019-05-11T05:13:09.579Z,94912
2019-05-11T05:14:07.983Z,94913
2019-05-11T05:15:16.144Z,94910
2019-05-11T05:16:25.714Z,94914
2019-05-11T05:17:35.254Z,94914
2019-05-11T05:18:44.765Z,94925
2019-05-11T05:19:54.333Z,94924
2019-05-11T05:21:03.894Z,94932
2019-05-11T05:22:13.460Z,94933
2019-05-11T05:23:23.018Z,94931
2019-05-11T05:24:32.535Z,94937
2019-05-11T05:25:42.063Z,94938
2019-05-11T05:26:51.615Z,94934
2019-05-11T05:28:01.171Z,94930
2019-05-11T05:29:10.705Z,94930
2019-05-11T05:30:20.275Z,94937
2019-05-11T05:31:29.818Z,94932
2019-05-11T05:32:39.372Z,94933
2019-05-11T05:33:48.944Z,94939
2019-05-11T05:34:58.574Z,94942
2019-05-11T05:36:08.110Z,94946
2019-05-11T05:37:17.712Z,94944
2019-05-11T05:38:27.182Z,94951
2019-05-11T05:39:36.743Z,94945
2019-05-11T05:40:46.345Z,94948
2019-05-11T05:41:57.372Z,94952
2019-05-11T05:43:05.446Z,94953
2019-05-11T05:44:15.962Z,94960
2019-05-11T05:45:25.535Z,94969
2019-05-11T05:46:35.078Z,94974
2019-05-11T05:47:44.626Z,94974
2019-05-11T05:48:54.164Z,94980
2019-05-11T05:50:03.756Z,94972
2019-05-11T05:51:13.274Z,94979
2019-05-11T05:52:22.796Z,94980
2019-05-11T05:53:32.345Z,94989
2019-05-11T05:54:41.880Z,94995
2019-05-11T05:55:51.470Z,94984
2019-05-11T05:57:00.057Z,94996
2019-05-11T05:58:09.593Z,94997
2019-05-11T05:59:19.127Z,95000
2019-05-11T06:00:28.698Z,95004
2019-05-11T06:01:38.248Z,94999
2019-05-11T06:02:47.818Z,94996
2019-05-11T06:03:57.387Z,94993
2019-05-11T06:05:06.975Z,94996
2019-05-11T06:06:16.549Z,95000
2019-05-11T06:07:26.075Z,94996
2019-05-11T06:08:35.600Z,94994
2019-05-11T06:09:46.167Z,94995
2019-05-11T06:10:55.737Z,94990
2019-05-11T06:12:05.287Z,94978
2019-05-11T06:13:14.890Z,94974
2019-05-11T06:14:24.454Z,94968
2019-05-11T06:15:33.994Z,94954
2019-05-11T06:16:43.539Z,94939
2019-05-11T06:17:53.083Z,94934
2019-05-11T06:19:03.585Z,94929
2019-05-11T06:20:13.156Z,94920
2019-05-11T06:21:22.697Z,94910
2019-05-11T06:22:32.256Z,94894
2019-05-11T06:23:41.789Z,94880
2019-05-11T06:24:51.349Z,94877
2019-05-11T06:26:00.913Z,94880
2019-05-11T06:27:10.459Z,94889
2019-05-11T06:28:20.042Z,94898
2019-05-11T06:29:29.601Z,94890
2019-05-11T06:30:39.175Z,94899
2019-05-11T06:31:48.724Z,94909
2019-05-11T06:32:58.277Z,94914
2019-05-11T06:34:07.848Z,94913
2019-05-11T06:35:17.386Z,94915
2019-05-11T06:36:26.923Z,94930
2019-05-11T06:37:36.507Z,94940
2019-05-11T06:38:46.042Z,94958
2019-05-11T06:39:55.600Z,94957
2019-05-11T06:41:05.129Z,94959
2019-05-11T06:42:14.704Z,94960
2019-05-11T06:43:24.243Z,94971
2019-05-11T06:44:33.817Z,94968
2019-05-11T06:45:43.359Z,94982
2019-05-11T06:46:52.922Z,94981
2019-05-11T06:48:02.486Z,94985
2019-05-11T06:49:12.018Z,94992
2019-05-11T06:50:21.590Z,94985
2019-05-11T06:51:31.187Z,94990
2019-05-11T06:52:41.709Z,94991
2019-05-11T06:53:51.309Z,95000
2019-05-11T06:55:01.829Z,94988
2019-05-11T06:56:11.388Z,94994
2019-05-11T06:57:20.940Z,94997
2019-05-11T06:58:30.498Z,94995
2019-05-11T06:59:40.052Z,94995
2019-05-11T07:00:49.651Z,95004
2019-05-11T07:01:59.237Z,94996
2019-05-11T07:03:08.797Z,94995
2019-05-11T07:04:18.402Z,94995
2019-05-11T07:05:27.935Z,94987
2019-05-11T07:06:37.511Z,94990
2019-05-11T07:07:48.028Z,94994
2019-05-11T07:08:56.699Z,94988
2019-05-11T07:10:06.283Z,94991
2019-05-11T07:11:15.898Z,94986
2019-05-11T07:12:27.575Z,94991
2019-05-11T07:13:34.977Z,94984
2019-05-11T07:14:44.548Z,94984
2019-05-11T07:15:54.121Z,94986
2019-05-11T07:17:03.715Z,94980
2019-05-11T07:18:13.302Z,94975
2019-05-11T07:19:22.853Z,94980
2019-05-11T07:20:32.427Z,94979
2019-05-11T07:21:42.976Z,94983
2019-05-11T07:22:52.509Z,94981
2019-05-11T07:24:02.073Z,94986
2019-05-11T07:25:11.613Z,94985
2019-05-11T07:26:21.178Z,94987
2019-05-11T07:27:30.726Z,94985
2019-05-11T07:28:40.262Z,94990
2019-05-11T07:29:49.826Z,94986
2019-05-11T07:30:59.361Z,94985
2019-05-11T07:32:19.540Z,94985
2019-05-11T07:33:19.449Z,94990
2019-05-11T07:34:28.992Z,94985
2019-05-11T07:35:38.637Z,94982
2019-05-11T07:36:48.103Z,94983
2019-05-11T07:37:58.238Z,94982
2019-05-11T07:39:08.272Z,94984
2019-05-11T07:40:18.715Z,94988
2019-05-11T07:41:28.075Z,94986
2019-05-11T07:42:37.889Z,94986
2019-05-11T07:43:45.382Z,94975
2019-05-11T07:44:54.954Z,94974
2019-05-11T07:46:04.554Z,94973
2019-05-11T07:47:14.108Z,94979
2019-05-11T07:48:23.671Z,94974
2019-05-11T07:49:33.236Z,94972
2019-05-11T07:50:42.770Z,94970
2019-05-11T07:51:52.368Z,94973
2019-05-11T07:53:01.915Z,94968
2019-05-11T07:54:11.529Z,94973
2019-05-11T07:55:22.111Z,94971
2019-05-11T07:56:31.686Z,94975
2019-05-11T07:57:42.207Z,94975
2019-05-11T07:58:51.750Z,94970
2019-05-11T08:00:01.282Z,94965
2019-05-11T08:01:10.897Z,94972
2019-05-11T08:02:21.470Z,94977
2019-05-11T08:03:32.106Z,94976
2019-05-11T08:04:41.655Z,94973
2019-05-11T08:05:51.203Z,94972
2019-05-11T08:07:00.767Z,94970
2019-05-11T08:08:10.294Z,94968
2019-05-11T08:09:20.832Z,94970
2019-05-11T08:10:30.387Z,94969
2019-05-11T08:11:40.939Z,94967
2019-05-11T08:12:50.492Z,94968
2019-05-11T08:14:01.033Z,94973
2019-05-11T08:15:13.486Z,94972
2019-05-11T08:16:21.155Z,94970
2019-05-11T08:17:31.688Z,94972
2019-05-11T08:18:41.227Z,94975
2019-05-11T08:19:50.767Z,94971
2019-05-11T08:21:01.312Z,94970
2019-05-11T08:22:11.869Z,94969
2019-05-11T08:23:22.442Z,94964
2019-05-11T08:24:31.969Z,94971
2019-05-11T08:25:41.542Z,94968
2019-05-11T08:26:52.121Z,94961
2019-05-11T08:28:01.712Z,94957
2019-05-11T08:29:12.260Z,94964
2019-05-11T08:30:21.787Z,94968
2019-05-11T08:31:31.354Z,94969
2019-05-11T08:32:41.947Z,94968
2019-05-11T08:33:52.514Z,94965
2019-05-11T08:35:02.048Z,94967
2019-05-11T08:36:11.568Z,94967
2019-05-11T08:37:21.178Z,94965
2019-05-11T08:38:31.733Z,94970
2019-05-11T08:39:41.269Z,94975
2019-05-11T08:40:50.825Z,94975
2019-05-11T08:42:03.290Z,94973
2019-05-11T08:43:11.936Z,94978
2019-05-11T08:44:21.492Z,94976
2019-05-11T08:45:31.992Z,94971
2019-05-11T08:46:42.553Z,94974
2019-05-11T08:47:52.097Z,94973
2019-05-11T08:49:01.642Z,94977
2019-05-11T08:50:11.202Z,94975
2019-05-11T08:51:21.708Z,94972
2019-05-11T08:52:31.244Z,94979
2019-05-11T08:53:41.834Z,94981
2019-05-11T08:54:51.397Z,94973
2019-05-11T08:56:00.938Z,94981
2019-05-11T08:57:11.473Z,94977
2019-05-11T08:58:28.144Z,94980
2019-05-11T08:59:38.170Z,94978
2019-05-11T09:00:47.829Z,94982
2019-05-11T09:01:58.699Z,94981
2019-05-11T09:03:08.256Z,94976
2019-05-11T09:04:17.943Z,94986
2019-05-11T09:05:27.719Z,94980
2019-05-11T09:06:34.783Z,94976
2019-05-11T09:07:44.370Z,94979
2019-05-11T09:08:54.889Z,94968
2019-05-11T09:10:04.392Z,94970
2019-05-11T09:11:13.910Z,94974
2019-05-11T09:12:23.428Z,94971
2019-05-11T09:13:32.936Z,94974
2019-05-11T09:14:42.449Z,94983
2019-05-11T09:15:51.955Z,94976
2019-05-11T09:17:01.463Z,94974
2019-05-11T09:18:11.000Z,94978
2019-05-11T09:19:21.542Z,94978
2019-05-11T09:20:31.038Z,94968
2019-05-11T09:21:40.543Z,94976
2019-05-11T09:22:51.076Z,94982
2019-05-11T09:24:01.588Z,94974
2019-05-11T09:25:11.112Z,94966
2019-05-11T09:26:21.614Z,94965
2019-05-11T09:27:31.156Z,94968
2019-05-11T09:28:40.654Z,94963
2019-05-11T09:29:50.176Z,94975
2019-05-11T09:31:00.689Z,94985
2019-05-11T09:32:11.271Z,94970
2019-05-11T09:33:20.929Z,94970
2019-05-11T09:34:31.338Z,94984
2019-05-11T09:35:49.707Z,94961
2019-05-11T09:36:51.331Z,94972
2019-05-11T09:38:01.849Z,94976
2019-05-11T09:39:11.360Z,94977
2019-05-11T09:40:20.864Z,94983
2019-05-11T09:41:31.366Z,94973
2019-05-11T09:42:40.909Z,94970
2019-05-11T09:43:50.488Z,94970
2019-05-11T09:45:01.009Z,94974
2019-05-11T09:46:10.613Z,94978
2019-05-11T09:47:21.118Z,94980
2019-05-11T09:48:30.669Z,94974
2019-05-11T09:49:47.272Z,94991
2019-05-11T09:50:51.698Z,94987
2019-05-11T09:52:01.218Z,94971
2019-05-11T09:53:10.754Z,95002
2019-05-11T09:54:20.288Z,94982
2019-05-11T09:55:30.841Z,94983
2019-05-11T09:56:41.367Z,94983
2019-05-11T09:57:51.877Z,94978
2019-05-11T09:59:01.415Z,94974
2019-05-11T10:00:11.939Z,94985
2019-05-11T10:01:21.442Z,94986
2019-05-11T10:02:31.953Z,94978
2019-05-11T10:03:41.502Z,94991
2019-05-11T10:04:51.067Z,95008
2019-05-11T10:06:00.647Z,94997
2019-05-11T10:07:11.203Z,94992
2019-05-11T10:08:20.744Z,94984
2019-05-11T10:09:31.376Z,94988
2019-05-11T10:10:40.926Z,94980
2019-05-11T10:11:51.452Z,94973
2019-05-11T10:13:00.993Z,94980
2019-05-11T10:14:11.517Z,94986
2019-05-11T10:15:22.069Z,94976
2019-05-11T10:16:31.586Z,95011
2019-05-11T10:17:41.135Z,94999
2019-05-11T10:18:51.705Z,94989
2019-05-11T10:20:02.245Z,94981
2019-05-11T10:21:12.805Z,94986
2019-05-11T10:22:22.357Z,95009
2019-05-11T10:23:31.903Z,94999
2019-05-11T10:24:42.422Z,95005
2019-05-11T10:25:52.009Z,94992
2019-05-11T10:27:01.596Z,94990
2019-05-11T10:28:11.137Z,94988
2019-05-11T10:29:20.750Z,94982
2019-05-11T10:30:31.278Z,95003
2019-05-11T10:31:41.831Z,94983
2019-05-11T10:32:51.420Z,94985
2019-05-11T10:34:00.962Z,94980
2019-05-11T10:35:11.538Z,94990
2019-05-11T10:36:21.097Z,94985
2019-05-11T10:37:30.660Z,94999
2019-05-11T10:38:41.185Z,94987
2019-05-11T10:39:51.839Z,94984
2019-05-11T10:41:01.334Z,94986
2019-05-11T10:42:11.864Z,94979
2019-05-11T10:43:21.419Z,94974
2019-05-11T10:44:31.971Z,94979
2019-05-11T10:45:41.521Z,94977
2019-05-11T10:46:51.050Z,94986
2019-05-11T10:48:01.706Z,94975
2019-05-11T10:49:12.225Z,94977
2019-05-11T10:50:21.726Z,94978
2019-05-11T10:51:31.255Z,94971
2019-05-11T10:52:41.846Z,94973
2019-05-11T10:53:52.157Z,94967
2019-05-11T10:55:00.894Z,94968
2019-05-11T10:56:11.447Z,94987
2019-05-11T10:57:20.988Z,94963
2019-05-11T10:58:31.526Z,94974
2019-05-11T10:59:41.821Z,94978
2019-05-11T11:00:51.348Z,94987
2019-05-11T11:02:00.867Z,94982
2019-05-11T11:03:11.373Z,94985
2019-05-11T11:04:20.912Z,94986
2019-05-11T11:05:31.419Z,94977
2019-05-11T11:06:40.933Z,94979
2019-05-11T11:07:51.438Z,94981
2019-05-11T11:09:01.977Z,94986
2019-05-11T11:10:11.498Z,94999
2019-05-11T11:11:21.009Z,95006
2019-05-11T11:12:30.548Z,94995
2019-05-11T11:13:41.062Z,95004
2019-05-11T11:14:50.652Z,94993
2019-05-11T11:16:02.070Z,94997
2019-05-11T11:17:11.690Z,94994
2019-05-11T11:18:22.215Z,94996
2019-05-11T11:19:31.796Z,94988
2019-05-11T11:20:41.286Z,94997
2019-05-11T11:21:51.785Z,94986
2019-05-11T11:23:02.294Z,94999
2019-05-11T11:24:11.844Z,95008
2019-05-11T11:25:21.360Z,95009
2019-05-11T11:26:30.870Z,94993
2019-05-11T11:27:41.412Z,95034
2019-05-11T11:28:51.905Z,94997
2019-05-11T11:30:01.434Z,95007
2019-05-11T11:31:11.955Z,95031
2019-05-11T11:32:21.478Z,95006
2019-05-11T11:33:30.999Z,95024
2019-05-11T11:34:41.523Z,95008
2019-05-11T11:35:51.042Z,95013
2019-05-11T11:37:00.569Z,95025
2019-05-11T11:38:11.109Z,95011
2019-05-11T11:39:20.749Z,95007
2019-05-11T11:40:31.264Z,95005
2019-05-11T11:41:41.816Z,95004
2019-05-11T11:42:51.348Z,95003
2019-05-11T11:44:00.925Z,95006
2019-05-11T11:45:10.515Z,95008
2019-05-11T11:46:21.137Z,95010
2019-05-11T11:47:30.728Z,94999
2019-05-11T11:48:41.284Z,94998
2019-05-11T11:49:51.816Z,94998
2019-05-11T11:51:01.349Z,95000
2019-05-11T11:52:10.893Z,95000
2019-05-11T11:53:21.415Z,95003
2019-05-11T11:54:31.012Z,94998
2019-05-11T11:55:41.600Z,95004
2019-05-11T11:56:51.145Z,94991
2019-05-11T11:58:01.695Z,94989
2019-05-11T11:59:11.181Z,94987
2019-05-11T12:00:20.739Z,94987
2019-05-11T12:01:31.293Z,94992
2019-05-11T12:02:41.804Z,94983
2019-05-11T12:03:51.347Z,94981
2019-05-11T12:05:00.880Z,94981
2019-05-11T12:06:11.433Z,94986
2019-05-11T12:07:20.934Z,94993
2019-05-11T12:08:31.438Z,94995
2019-05-11T12:09:41.981Z,94992
2019-05-11T12:10:51.529Z,94990
2019-05-11T12:12:02.150Z,94984
2019-05-11T12:13:11.663Z,94985
2019-05-11T12:14:22.172Z,94986
2019-05-11T12:15:31.774Z,94984
2019-05-11T12:16:41.311Z,94986
2019-05-11T12:17:51.860Z,94988
2019-05-11T12:19:01.390Z,94979
2019-05-11T12:20:10.923Z,94986
2019-05-11T12:21:21.453Z,94988
2019-05-11T12:22:31.023Z,94993
2019-05-11T12:23:41.599Z,94989
2019-05-11T12:24:51.135Z,94989
2019-05-11T12:26:01.679Z,94995
2019-05-11T12:27:11.184Z,94994
2019-05-11T12:28:20.801Z,94993
2019-05-11T12:29:30.374Z,94992
2019-05-11T12:30:40.990Z,94998
2019-05-11T12:31:51.551Z,94994
2019-05-11T12:33:02.051Z,95004
2019-05-11T12:34:11.555Z,94993
2019-05-11T12:35:21.105Z,95000
2019-05-11T12:36:31.650Z,94997
2019-05-11T12:37:41.244Z,94999
2019-05-11T12:38:51.821Z,95001
2019-05-11T12:40:01.472Z,94993
2019-05-11T12:41:11.020Z,95006
2019-05-11T12:42:21.585Z,95005
2019-05-11T12:43:31.210Z,95008
2019-05-11T12:44:40.720Z,95005
2019-05-11T12:45:51.263Z,95007
2019-05-11T12:47:01.773Z,94994
2019-05-11T12:48:12.267Z,94997
2019-05-11T12:49:21.785Z,95001
2019-05-11T12:50:31.399Z,94989
2019-05-11T12:51:40.936Z,94986
2019-05-11T12:52:51.454Z,94979
2019-05-11T12:54:02.024Z,94986
2019-05-11T12:55:11.593Z,94977
2019-05-11T12:56:21.174Z,94985
2019-05-11T12:57:30.706Z,94989
2019-05-11T12:58:41.279Z,94991
2019-05-11T12:59:51.794Z,94997
2019-05-11T13:01:01.327Z,95002
2019-05-11T13:02:11.873Z,95002
2019-05-11T13:03:21.398Z,95008
2019-05-11T13:04:30.940Z,95001
2019-05-11T13:05:41.481Z,95011
2019-05-11T13:06:51.043Z,95032
2019-05-11T13:08:01.589Z,95022
2019-05-11T13:09:11.091Z,95032
2019-05-11T13:10:21.631Z,95018
2019-05-11T13:11:31.148Z,95038
2019-05-11T13:12:40.676Z,95034
2019-05-11T13:13:51.227Z,95027
2019-05-11T13:15:01.777Z,95031
2019-05-11T13:16:11.328Z,95022
2019-05-11T13:17:33.956Z,95032
2019-05-11T13:18:33.062Z,95024
2019-05-11T13:19:42.619Z,95022
2019-05-11T13:20:52.157Z,95002
2019-05-11T13:22:01.673Z,95010
2019-05-11T13:23:11.174Z,95017
2019-05-11T13:24:21.721Z,95011
2019-05-11T13:25:31.255Z,95011
2019-05-11T13:26:41.801Z,95023
2019-05-11T13:27:51.314Z,95025
2019-05-11T13:29:00.871Z,95023
2019-05-11T13:30:10.406Z,95018
2019-05-11T13:31:20.993Z,95032
2019-05-11T13:32:30.524Z,95040
2019-05-11T13:33:41.044Z,95046
2019-05-11T13:34:50.585Z,95051
2019-05-11T13:36:01.133Z,95044
2019-05-11T13:37:11.669Z,95046
2019-05-11T13:38:22.185Z,95057
2019-05-11T13:39:31.711Z,95047
2019-05-11T13:40:41.247Z,95054
2019-05-11T13:41:51.783Z,95071
2019-05-11T13:43:01.302Z,95053
2019-05-11T13:44:10.847Z,95052
2019-05-11T13:45:20.363Z,95063
2019-05-11T13:46:30.888Z,95059
2019-05-11T13:47:51.099Z,95045
2019-05-11T13:48:51.880Z,95063
2019-05-11T13:50:01.406Z,95044
2019-05-11T13:51:10.997Z,95064
2019-05-11T13:52:21.587Z,95067
2019-05-11T13:53:31.109Z,95125
2019-05-11T13:54:39.731Z,95086
2019-05-11T13:55:50.265Z,95116
2019-05-11T13:57:00.793Z,95080
2019-05-11T13:58:11.296Z,95118
2019-05-11T13:59:21.810Z,95084
2019-05-11T14:00:31.315Z,95096
2019-05-11T14:01:40.858Z,95071
2019-05-11T14:02:50.346Z,95082
2019-05-11T14:04:00.866Z,95126
2019-05-11T14:05:11.371Z,95104
2019-05-11T14:06:20.899Z,95108
2019-05-11T14:07:31.408Z,95119
2019-05-11T14:08:40.987Z,95103
2019-05-11T14:09:51.515Z,95092
2019-05-11T14:11:02.022Z,95101
2019-05-11T14:12:11.546Z,95094
2019-05-11T14:13:21.104Z,95090
2019-05-11T14:14:31.593Z,95086
2019-05-11T14:15:41.146Z,95091
2019-05-11T14:16:50.770Z,95085
2019-05-11T14:18:07.593Z,95083
2019-05-11T14:19:11.811Z,95090
2019-05-11T14:20:21.317Z,95095
2019-05-11T14:21:31.856Z,95097
2019-05-11T14:22:41.375Z,95086
2019-05-11T14:23:50.989Z,95086
2019-05-11T14:25:01.513Z,95092
2019-05-11T14:26:11.078Z,95083
2019-05-11T14:27:21.587Z,95089
2019-05-11T14:28:32.101Z,95090
2019-05-11T14:29:41.616Z,95089
2019-05-11T14:30:52.123Z,95074
2019-05-11T14:32:01.645Z,95080
2019-05-11T14:33:11.168Z,95079
2019-05-11T14:34:20.708Z,95077
2019-05-11T14:35:31.287Z,95061
2019-05-11T14:36:41.841Z,95044
2019-05-11T14:37:52.376Z,95058
2019-05-11T14:39:01.895Z,95046
2019-05-11T14:40:11.422Z,95051
2019-05-11T14:41:20.922Z,95058
2019-05-11T14:42:31.599Z,95069
2019-05-11T14:43:41.122Z,95072
2019-05-11T14:44:51.665Z,95075
2019-05-11T14:46:02.217Z,95081
2019-05-11T14:47:11.743Z,95086
2019-05-11T14:48:26.031Z,95098
2019-05-11T14:49:31.809Z,95096
2019-05-11T14:50:41.307Z,95109
2019-05-11T14:51:51.839Z,95115
2019-05-11T14:53:01.358Z,95104
2019-05-11T14:54:11.893Z,95109
2019-05-11T14:55:21.399Z,95119
2019-05-11T14:56:31.909Z,95115
2019-05-11T14:57:41.461Z,95120
2019-05-11T14:58:51.989Z,95134